Time;durP1;ratioP1;P1;durP2;ratioP2;P2;SDS_P1;SDS_P2;PMS_P1;PMS_P2;Temp;Humidity;BMP_temperature;BMP_pressure;BME280_temperature;BME280_humidity;BME280_pressure;Samples;Min_cycle;Max_cycle;Signal;HPM_P1;HPM_P2
2023/09/15 00:00:44;;;;;;;35.10;24.70;;;;;;;24.44;65.00;99948.30;107850;1257;72557;-67
2023/09/15 00:03:11;;;;;;;25.10;20.70;;;;;;;24.42;65.08;99945.14;107652;1263;60495;-66
2023/09/15 00:05:38;;;;;;;29.90;23.00;;;;;;;24.28;65.26;99945.20;107749;1257;60412;-66
2023/09/15 00:08:05;;;;;;;37.80;27.10;;;;;;;24.20;65.82;99947.27;107728;1256;60313;-67
2023/09/15 00:10:38;;;;;;;32.20;24.70;;;;;;;24.10;66.33;99950.90;107744;1258;70282;-67
2023/09/15 00:13:04;;;;;;;30.20;24.30;;;;;;;24.05;66.40;99955.68;107739;1256;71728;-66
2023/09/15 00:15:32;;;;;;;31.40;25.00;;;;;;;24.17;65.99;99953.78;107850;1257;61881;-67
2023/09/15 00:17:59;;;;;;;30.20;23.30;;;;;;;24.11;65.91;99960.69;107837;1256;59649;-66
2023/09/15 00:20:25;;;;;;;34.00;25.50;;;;;;;24.13;65.83;99961.80;107801;1256;73732;-66
2023/09/15 00:22:53;;;;;;;28.80;23.90;;;;;;;24.12;65.71;99961.24;107848;1257;68023;-67
2023/09/15 00:25:26;;;;;;;30.20;26.20;;;;;;;23.96;66.23;99958.89;107831;1256;72602;-66
2023/09/15 00:27:55;;;;;;;30.30;26.60;;;;;;;23.94;66.36;99962.48;107651;1257;61930;-66
2023/09/15 00:30:23;;;;;;;33.60;26.50;;;;;;;24.03;65.90;99963.90;107630;1259;60422;-68
2023/09/15 00:32:50;;;;;;;37.80;30.20;;;;;;;24.16;65.53;99966.48;107677;1257;73949;-65
2023/09/15 00:35:18;;;;;;;35.40;27.80;;;;;;;24.12;65.85;99970.31;107728;1258;69320;-67
2023/09/15 00:37:46;;;;;;;38.90;30.50;;;;;;;24.11;65.76;99969.08;107652;1258;71198;-66
2023/09/15 00:40:16;;;;;;;41.80;33.50;;;;;;;24.16;65.57;99967.34;107753;1257;61806;-66
2023/09/15 00:42:44;;;;;;;47.60;33.10;;;;;;;24.15;65.79;99974.33;107774;1257;60300;-65
2023/09/15 00:45:14;;;;;;;41.60;35.00;;;;;;;24.24;65.67;99968.59;107745;1257;73559;-66
2023/09/15 00:47:46;;;;;;;44.20;33.00;;;;;;;24.20;65.77;99971.77;107583;1257;69150;-66
2023/09/15 00:50:14;;;;;;;30.10;24.80;;;;;;;24.20;65.76;99971.42;107581;1258;72578;-66
2023/09/15 00:52:42;;;;;;;43.50;31.90;;;;;;;24.21;65.65;99974.92;107708;1258;61671;-65
2023/09/15 00:55:10;;;;;;;38.10;32.30;;;;;;;24.20;65.85;99976.71;107700;1257;60342;-67
2023/09/15 00:57:39;;;;;;;35.40;27.70;;;;;;;24.13;66.11;99982.21;107714;1258;73782;-65
2023/09/15 01:00:12;;;;;;;43.10;31.80;;;;;;;24.14;66.24;99985.64;107471;1257;68783;-66
2023/09/15 01:02:41;;;;;;;31.50;26.30;;;;;;;24.18;65.99;99990.83;107692;1257;71562;-65
2023/09/15 01:05:19;;;;;;;40.90;32.40;;;;;;;24.33;65.48;99988.86;107683;1257;60385;-65
2023/09/15 01:07:47;;;;;;;42.10;32.10;;;;;;;24.30;65.54;99989.64;107761;1257;59608;-66
2023/09/15 01:10:14;;;;;;;30.30;24.60;;;;;;;24.25;65.83;99986.73;107791;1257;73680;-66
2023/09/15 01:12:43;;;;;;;31.80;26.10;;;;;;;24.04;66.41;99994.46;107756;1258;70279;-66
2023/09/15 01:15:10;;;;;;;28.50;24.90;;;;;;;24.02;66.78;99987.34;107719;1257;71046;-66
2023/09/15 01:17:53;;;;;;;32.70;24.20;;;;;;;24.14;66.30;99983.31;107721;1258;62046;-65
2023/09/15 01:20:35;;;;;;;28.80;23.70;;;;;;;24.16;66.36;99976.33;107706;1257;60308;-66
2023/09/15 01:23:22;;;;;;;25.90;22.70;;;;;;;24.04;66.74;99980.54;107726;1257;73775;-66
2023/09/15 01:26:22;;;;;;;27.20;22.20;;;;;;;24.13;66.43;99986.09;107647;1256;69007;-66
2023/09/15 01:29:07;;;;;;;33.10;24.00;;;;;;;24.31;65.94;99991.52;107568;1257;72497;-66
2023/09/15 01:31:34;;;;;;;29.00;23.60;;;;;;;24.10;66.65;99996.95;107746;1260;61762;-67
2023/09/15 01:34:00;;;;;;;25.20;20.60;;;;;;;24.23;66.21;99998.02;107494;1257;60321;-66
2023/09/15 01:36:27;;;;;;;33.40;24.30;;;;;;;24.25;66.05;100008.67;107635;1256;72606;-68
2023/09/15 01:38:54;;;;;;;23.80;20.30;;;;;;;24.25;66.04;100004.13;107779;1256;60319;-65
2023/09/15 01:41:21;;;;;;;27.60;24.00;;;;;;;24.26;65.89;100001.36;107718;1257;72572;-65
2023/09/15 01:43:48;;;;;;;31.10;25.50;;;;;;;24.33;65.65;100007.36;107703;1256;60800;-66
2023/09/15 01:46:14;;;;;;;23.70;21.20;;;;;;;24.22;65.81;100007.84;107751;1256;60271;-66
2023/09/15 01:48:41;;;;;;;30.70;25.30;;;;;;;24.24;65.77;100008.23;107741;1256;73643;-65
2023/09/15 01:51:08;;;;;;;27.90;22.40;;;;;;;24.24;66.00;100012.86;107631;1256;60427;-66
2023/09/15 01:53:36;;;;;;;25.30;22.60;;;;;;;24.16;66.07;100014.70;107561;1256;70961;-66
2023/09/15 01:56:03;;;;;;;32.70;25.70;;;;;;;24.39;65.32;100014.59;107654;1256;60758;-65
2023/09/15 01:58:30;;;;;;;23.40;20.90;;;;;;;24.52;65.06;100013.96;107647;1256;60348;-65
2023/09/15 02:00:58;;;;;;;26.00;23.20;;;;;;;24.45;64.99;100016.61;107666;1256;74293;-66
2023/09/15 02:03:25;;;;;;;24.30;20.80;;;;;;;24.29;65.47;100018.96;107723;1256;69001;-65
2023/09/15 02:05:52;;;;;;;24.80;22.00;;;;;;;24.32;65.23;100028.77;107788;1256;60402;-66
2023/09/15 02:08:19;;;;;;;29.30;25.10;;;;;;;24.22;65.44;100031.20;107652;1256;61968;-65
2023/09/15 02:10:45;;;;;;;27.30;22.10;;;;;;;24.14;65.31;100036.81;107805;1256;60475;-66
2023/09/15 02:13:12;;;;;;;29.10;25.20;;;;;;;24.04;65.64;100042.20;107813;1256;73600;-66
2023/09/15 02:15:39;;;;;;;32.50;25.60;;;;;;;24.16;65.39;100042.72;107597;1257;69059;-66
2023/09/15 02:18:06;;;;;;;32.60;26.20;;;;;;;24.05;65.82;100046.43;107743;1257;70744;-64
2023/09/15 02:20:33;;;;;;;33.80;27.60;;;;;;;24.00;66.09;100041.70;107716;1256;62045;-65
2023/09/15 02:23:03;;;;;;;30.80;25.90;;;;;;;24.16;65.59;100047.48;107762;1257;60499;-65
2023/09/15 02:25:31;;;;;;;33.50;26.90;;;;;;;23.99;65.89;100042.67;107599;1256;74223;-64
2023/09/15 02:27:58;;;;;;;36.80;28.60;;;;;;;24.00;66.05;100040.61;107600;1257;70276;-66
2023/09/15 02:30:24;;;;;;;26.00;21.20;;;;;;;24.22;65.46;100036.72;107621;1256;60526;-66
2023/09/15 02:32:51;;;;;;;34.40;27.70;;;;;;;24.52;64.51;100039.94;107574;1257;60517;-65
2023/09/15 02:35:19;;;;;;;24.60;21.50;;;;;;;24.39;64.81;100037.26;107816;1258;59008;-67
2023/09/15 02:37:45;;;;;;;32.10;27.20;;;;;;;24.36;64.70;100036.63;107627;1256;72603;-66
2023/09/15 02:40:14;;;;;;;31.50;27.80;;;;;;;24.37;64.66;100038.91;107663;1257;68755;-65
2023/09/15 02:42:41;;;;;;;31.50;26.20;;;;;;;24.39;64.72;100043.20;107558;1257;72438;-67
2023/09/15 02:45:08;;;;;;;37.60;28.50;;;;;;;24.34;64.74;100047.37;107767;1257;60803;-66
2023/09/15 02:47:34;;;;;;;34.30;28.20;;;;;;;24.41;64.55;100050.88;107782;1256;60595;-66
2023/09/15 02:50:01;;;;;;;27.70;23.40;;;;;;;24.48;64.24;100054.13;107851;1256;60451;-67
2023/09/15 02:52:28;;;;;;;35.00;26.90;;;;;;;24.37;64.39;100050.41;107845;1260;70228;-66
2023/09/15 02:54:55;;;;;;;29.00;23.80;;;;;;;24.26;64.71;100047.27;107422;1258;180079;-66
2023/09/15 02:58:40;;;;;;;33.40;26.80;;;;;;;22.46;72.00;100050.05;104796;1292;600485;-67
2023/09/15 03:01:13;;;;;;;32.00;26.20;;;;;;;23.29;68.69;100048.31;107226;1266;61713;-66
2023/09/15 03:03:44;;;;;;;35.30;24.70;;;;;;;23.62;67.63;100052.16;107206;1265;60007;-66
2023/09/15 03:06:12;;;;;;;27.00;21.00;;;;;;;23.62;67.36;100051.51;107199;1266;72223;-66
2023/09/15 03:08:40;;;;;;;29.20;24.30;;;;;;;23.86;66.49;100057.17;107185;1266;70267;-66
2023/09/15 03:11:12;;;;;;;27.70;22.50;;;;;;;23.81;66.33;100062.11;107003;1266;212012;-68
2023/09/15 03:13:40;;;;;;;31.40;24.30;;;;;;;23.89;66.28;100063.55;107198;1263;61502;-66
2023/09/15 03:16:11;;;;;;;33.50;26.70;;;;;;;23.89;66.23;100068.73;107245;1264;59962;-66
2023/09/15 03:18:42;;;;;;;34.50;25.50;;;;;;;23.80;66.75;100068.30;107354;1268;72345;-65
2023/09/15 03:21:10;;;;;;;22.50;18.20;;;;;;;23.84;66.73;100071.14;108227;1251;68923;-67
2023/09/15 03:23:38;;;;;;;29.60;23.20;;;;;;;23.77;66.86;100065.36;108048;1254;72598;-66
2023/09/15 03:26:06;;;;;;;29.40;23.90;;;;;;;23.60;67.33;100069.26;107952;1254;61759;-66
2023/09/15 03:28:35;;;;;;;28.50;23.10;;;;;;;23.50;67.78;100070.52;108215;1256;59074;-65
2023/09/15 03:31:03;;;;;;;22.80;20.40;;;;;;;23.60;67.43;100075.82;108052;1253;73045;-65
2023/09/15 03:33:32;;;;;;;31.80;24.00;;;;;;;23.57;67.54;100080.62;108049;1254;69567;-66
2023/09/15 03:36:00;;;;;;;27.70;23.50;;;;;;;23.54;67.56;100081.96;108082;1253;72092;-67
2023/09/15 03:38:28;;;;;;;23.20;19.70;;;;;;;23.19;68.93;100085.86;108054;1253;60390;-66
2023/09/15 03:40:57;;;;;;;31.20;23.10;;;;;;;23.13;69.06;100088.73;108152;1252;62237;-66
2023/09/15 03:43:25;;;;;;;24.90;21.50;;;;;;;23.11;69.36;100093.43;108040;1253;72179;-65
2023/09/15 03:45:52;;;;;;;26.60;21.60;;;;;;;23.08;69.55;100097.42;108016;1252;69145;-66
2023/09/15 03:48:20;;;;;;;29.60;22.40;;;;;;;23.22;69.19;100098.88;108077;1253;71407;-66
2023/09/15 03:50:48;;;;;;;24.70;19.70;;;;;;;23.35;68.86;100102.55;108021;1254;61641;-66
2023/09/15 03:53:16;;;;;;;24.40;20.80;;;;;;;23.40;68.61;100103.14;108025;1253;59487;-66
2023/09/15 03:55:43;;;;;;;26.30;21.20;;;;;;;23.59;68.03;100106.26;108025;1253;72857;-66
2023/09/15 03:58:11;;;;;;;19.40;17.20;;;;;;;23.54;67.98;100114.18;108049;1253;68527;-65
2023/09/15 04:00:38;;;;;;;26.90;20.50;;;;;;;23.37;68.25;100112.44;107985;1254;72472;-66
2023/09/15 04:03:06;;;;;;;18.80;16.60;;;;;;;23.41;68.53;100110.91;108006;1253;62237;-66
2023/09/15 04:05:34;;;;;;;24.90;19.10;;;;;;;23.47;68.28;100107.33;108060;1252;60073;-66
2023/09/15 04:08:01;;;;;;;21.20;18.40;;;;;;;23.47;68.24;100113.84;108009;1253;73024;-66
2023/09/15 04:10:29;;;;;;;21.70;17.50;;;;;;;23.37;68.54;100116.17;107986;1258;70188;-65
2023/09/15 04:12:56;;;;;;;26.80;19.50;;;;;;;23.34;68.73;100115.02;108018;1253;73114;-66
2023/09/15 04:15:24;;;;;;;23.40;18.90;;;;;;;23.38;68.81;100119.50;108054;1253;61994;-65
2023/09/15 04:17:51;;;;;;;28.40;20.70;;;;;;;23.45;68.68;100123.67;108079;1252;59677;-68
2023/09/15 04:20:19;;;;;;;29.90;21.80;;;;;;;23.41;69.00;100128.31;108016;1254;71874;-66
2023/09/15 04:23:01;;;;;;;24.10;18.90;;;;;;;23.53;68.95;100132.06;108074;1253;69955;-66
2023/09/15 04:25:29;;;;;;;31.10;23.00;;;;;;;23.42;69.06;100131.26;108082;1253;71370;-66
2023/09/15 04:27:56;;;;;;;32.30;23.00;;;;;;;23.35;69.55;100131.59;108047;1254;60890;-66
2023/09/15 04:30:24;;;;;;;41.30;25.60;;;;;;;23.27;69.86;100133.48;107987;1253;59619;-67
2023/09/15 04:32:58;;;;;;;37.00;26.80;;;;;;;23.39;69.49;100132.47;108092;1253;72115;-67
2023/09/15 04:35:27;;;;;;;30.20;24.90;;;;;;;23.49;69.31;100134.60;108137;1253;69574;-67
2023/09/15 04:37:55;;;;;;;33.30;24.90;;;;;;;23.65;68.84;100139.77;108101;1252;71438;-66
2023/09/15 04:40:22;;;;;;;36.10;27.30;;;;;;;23.83;68.15;100136.16;108009;1253;61862;-64
2023/09/15 04:42:50;;;;;;;35.60;26.60;;;;;;;23.88;68.12;100138.79;108080;1253;60045;-67
2023/09/15 04:45:17;;;;;;;35.50;28.50;;;;;;;23.82;68.46;100135.35;108040;1252;71728;-66
2023/09/15 04:47:45;;;;;;;39.80;29.60;;;;;;;23.83;68.73;100137.09;108050;1253;70083;-67
2023/09/15 04:50:18;;;;;;;44.00;31.50;;;;;;;23.97;68.34;100135.71;108120;1253;71729;-67
2023/09/15 04:52:48;;;;;;;41.20;30.50;;;;;;;23.86;68.64;100135.70;108081;1253;62100;-67
2023/09/15 04:55:16;;;;;;;46.70;32.00;;;;;;;23.91;68.65;100141.02;108082;1257;59473;-66
2023/09/15 04:57:46;;;;;;;42.10;30.50;;;;;;;24.00;68.36;100139.59;108064;1253;71798;-67
2023/09/15 05:00:23;;;;;;;47.90;32.40;;;;;;;24.03;68.12;100142.40;108051;1253;69921;-67
2023/09/15 05:02:56;;;;;;;40.70;29.20;;;;;;;24.14;67.87;100141.36;108059;1253;72285;-66
2023/09/15 05:05:27;;;;;;;36.70;30.50;;;;;;;24.28;67.42;100143.27;108032;1253;60867;-66
2023/09/15 05:07:56;;;;;;;45.90;33.00;;;;;;;24.37;67.38;100143.46;108023;1253;58985;-67
2023/09/15 05:10:24;;;;;;;45.90;32.40;;;;;;;24.43;67.20;100148.24;108068;1253;71316;-67
2023/09/15 05:12:51;;;;;;;42.10;32.60;;;;;;;24.49;67.10;100150.63;108023;1253;68933;-67
2023/09/15 05:15:20;;;;;;;46.50;33.70;;;;;;;24.47;67.16;100156.75;108041;1253;72765;-67
2023/09/15 05:17:47;;;;;;;45.80;32.80;;;;;;;24.49;67.21;100160.15;108010;1253;60038;-67
2023/09/15 05:20:15;;;;;;;46.40;32.80;;;;;;;24.68;66.45;100164.09;108047;1253;59560;-66
2023/09/15 05:22:43;;;;;;;33.00;24.90;;;;;;;24.84;65.88;100163.09;108023;1253;70994;-66
2023/09/15 05:25:10;;;;;;;44.00;31.20;;;;;;;24.98;65.00;100162.08;108055;1253;71147;-65
2023/09/15 05:27:38;;;;;;;45.10;32.20;;;;;;;24.77;65.70;100164.63;108067;1253;72340;-65
2023/09/15 05:30:07;;;;;;;40.00;28.00;;;;;;;24.73;65.85;100170.46;108099;1253;60633;-66
2023/09/15 05:32:35;;;;;;;42.00;30.40;;;;;;;24.74;65.57;100173.19;108089;1252;60136;-66
2023/09/15 05:35:03;;;;;;;31.80;26.30;;;;;;;24.76;65.75;100177.70;108116;1253;71453;-66
2023/09/15 05:37:31;;;;;;;39.90;29.70;;;;;;;24.89;65.27;100175.47;108040;1253;70627;-66
2023/09/15 05:39:58;;;;;;;47.80;31.30;;;;;;;24.98;65.20;100177.36;107905;1253;71509;-67
2023/09/15 05:42:26;;;;;;;34.30;25.30;;;;;;;24.96;65.36;100175.05;108053;1253;61872;-67
2023/09/15 05:44:54;;;;;;;40.50;30.00;;;;;;;25.00;64.53;100178.83;108025;1257;59982;-67
2023/09/15 05:47:22;;;;;;;35.20;28.50;;;;;;;24.91;64.80;100185.05;108103;1253;73128;-65
2023/09/15 05:49:49;;;;;;;42.80;30.20;;;;;;;24.92;64.48;100187.59;108139;1253;68915;-67
2023/09/15 05:52:17;;;;;;;42.50;32.60;;;;;;;24.93;64.66;100187.70;108008;1253;71405;-66
2023/09/15 05:54:45;;;;;;;49.20;32.90;;;;;;;24.85;65.09;100189.77;108093;1254;61692;-67
2023/09/15 05:57:12;;;;;;;47.10;35.40;;;;;;;24.76;65.46;100189.20;108075;1256;60353;-66
2023/09/15 05:59:42;;;;;;;49.60;34.10;;;;;;;24.93;64.86;100187.69;108101;1252;75267;-66
2023/09/15 06:02:10;;;;;;;42.70;31.20;;;;;;;25.08;64.39;100190.39;108025;1253;69988;-67
2023/09/15 06:04:37;;;;;;;44.20;32.60;;;;;;;25.21;63.88;100192.73;108042;1257;72628;-67
2023/09/15 06:07:04;;;;;;;38.90;29.40;;;;;;;25.29;63.85;100189.33;108040;1253;61710;-66
2023/09/15 06:09:33;;;;;;;43.10;31.50;;;;;;;25.45;63.34;100192.61;108059;1253;60036;-66
2023/09/15 06:12:00;;;;;;;39.20;31.00;;;;;;;25.40;63.54;100195.77;108086;1251;73460;-67
2023/09/15 06:14:28;;;;;;;38.30;30.40;;;;;;;25.36;63.58;100201.87;108108;1253;69183;-66
2023/09/15 06:16:56;;;;;;;38.50;29.30;;;;;;;25.44;62.96;100202.88;108107;1253;71369;-66
2023/09/15 06:19:24;;;;;;;36.00;26.60;;;;;;;25.43;62.76;100202.64;108082;1253;62008;-66
2023/09/15 06:21:52;;;;;;;38.50;28.90;;;;;;;25.37;62.82;100212.56;108080;1252;62420;-66
2023/09/15 06:24:19;;;;;;;38.30;28.50;;;;;;;25.33;63.21;100214.07;108094;1253;71725;-67
2023/09/15 06:26:47;;;;;;;38.50;26.90;;;;;;;25.18;63.89;100219.77;108110;1253;69366;-66
2023/09/15 06:29:15;;;;;;;31.90;24.50;;;;;;;25.07;63.98;100224.99;108124;1253;71058;-66
2023/09/15 06:31:43;;;;;;;35.40;23.70;;;;;;;25.17;63.64;100224.80;108067;1256;61709;-69
2023/09/15 06:34:10;;;;;;;28.60;20.50;;;;;;;25.08;63.65;100230.44;108051;1253;60213;-66
2023/09/15 06:36:39;;;;;;;31.30;22.70;;;;;;;25.16;63.08;100230.07;108096;1253;73018;-67
2023/09/15 06:39:09;;;;;;;26.90;20.70;;;;;;;25.05;63.44;100233.93;108096;1253;68224;-67
2023/09/15 06:41:37;;;;;;;27.70;21.30;;;;;;;24.97;63.92;100232.98;108038;1253;71491;-66
2023/09/15 06:44:04;;;;;;;28.80;20.70;;;;;;;24.92;64.23;100235.08;108032;1257;61667;-67
2023/09/15 06:46:32;;;;;;;27.20;19.80;;;;;;;25.02;63.92;100238.27;108073;1253;60221;-66
2023/09/15 06:49:01;;;;;;;29.80;21.00;;;;;;;25.15;63.50;100239.08;108102;1253;72962;-66
2023/09/15 06:51:29;;;;;;;28.40;20.30;;;;;;;24.89;64.12;100246.12;108046;1252;69171;-67
2023/09/15 06:53:56;;;;;;;27.60;20.40;;;;;;;24.86;64.34;100244.97;108077;1257;72673;-67
2023/09/15 06:56:23;;;;;;;27.30;19.40;;;;;;;24.67;64.87;100247.09;108082;1253;62733;-66
2023/09/15 06:58:51;;;;;;;26.00;18.40;;;;;;;24.73;65.09;100246.52;108022;1258;59576;-67
2023/09/15 07:01:18;;;;;;;28.50;19.00;;;;;;;24.82;64.54;100248.70;108030;1257;71758;-66
2023/09/15 07:03:46;;;;;;;24.80;17.50;;;;;;;24.85;64.68;100248.66;108043;1253;70094;-66
2023/09/15 07:06:13;;;;;;;24.50;16.00;;;;;;;24.80;64.82;100251.40;108034;1253;71846;-66
2023/09/15 07:08:41;;;;;;;23.10;16.50;;;;;;;24.82;64.52;100253.54;108018;1254;60382;-66
2023/09/15 07:11:09;;;;;;;20.30;15.70;;;;;;;24.81;64.45;100253.15;108023;1253;60517;-66
2023/09/15 07:13:36;;;;;;;22.40;17.40;;;;;;;24.78;64.57;100252.13;108038;1257;74095;-66
2023/09/15 07:16:04;;;;;;;23.30;16.40;;;;;;;24.74;64.60;100256.83;108076;1252;69232;-66
2023/09/15 07:18:31;;;;;;;21.20;16.00;;;;;;;24.61;65.12;100259.88;108045;1253;72692;-66
2023/09/15 07:20:59;;;;;;;22.00;16.00;;;;;;;24.48;65.49;100263.38;107994;1253;60569;-67
2023/09/15 07:23:26;;;;;;;20.10;15.50;;;;;;;24.64;65.25;100265.54;108004;1253;60151;-66
2023/09/15 07:25:55;;;;;;;21.50;14.80;;;;;;;24.90;64.48;100266.65;107950;1253;72887;-66
2023/09/15 07:28:22;;;;;;;24.40;15.00;;;;;;;25.04;63.97;100268.02;108073;1256;69184;-66
2023/09/15 07:30:50;;;;;;;18.10;14.10;;;;;;;24.89;64.63;100271.98;108074;1252;72806;-67
2023/09/15 07:33:17;;;;;;;18.40;15.00;;;;;;;24.93;64.21;100276.40;108034;1253;64083;-66
2023/09/15 07:35:45;;;;;;;16.30;14.30;;;;;;;25.09;63.85;100279.71;108062;1253;59702;-66
2023/09/15 07:38:12;;;;;;;21.30;14.00;;;;;;;25.27;63.22;100281.82;108088;1253;73876;-66
2023/09/15 07:40:40;;;;;;;21.80;14.70;;;;;;;25.30;62.21;100285.98;108041;1253;70524;-67
2023/09/15 07:43:07;;;;;;;17.90;13.60;;;;;;;25.24;62.63;100288.23;108045;1253;72615;-67
2023/09/15 07:45:35;;;;;;;23.30;14.50;;;;;;;25.35;61.94;100290.21;108115;1253;60450;-66
2023/09/15 07:48:02;;;;;;;21.40;15.40;;;;;;;25.26;62.18;100291.21;108082;1252;60323;-66
2023/09/15 07:50:33;;;;;;;19.40;14.50;;;;;;;25.27;62.12;100288.59;108089;1256;73881;-66
2023/09/15 07:53:01;;;;;;;20.40;16.30;;;;;;;25.37;61.26;100289.48;108029;1254;70043;-65
2023/09/15 07:55:29;;;;;;;23.30;16.30;;;;;;;25.29;61.86;100286.77;108057;1252;73118;-67
2023/09/15 07:57:56;;;;;;;21.60;16.60;;;;;;;25.44;61.80;100287.77;108031;1253;61621;-66
2023/09/15 08:00:24;;;;;;;20.80;15.70;;;;;;;25.46;61.98;100289.93;108049;1253;60440;-67
2023/09/15 08:02:52;;;;;;;20.60;16.30;;;;;;;25.55;61.80;100291.48;108072;1252;73868;-66
2023/09/15 08:05:19;;;;;;;29.80;17.90;;;;;;;25.77;61.15;100288.13;108070;1253;70647;-66
2023/09/15 08:07:48;;;;;;;26.30;17.00;;;;;;;25.99;60.65;100291.16;108012;1253;71377;-66
2023/09/15 08:10:18;;;;;;;22.30;16.50;;;;;;;26.07;60.46;100293.20;108000;1253;61653;-66
2023/09/15 08:12:48;;;;;;;24.40;17.70;;;;;;;26.23;60.11;100293.63;108092;1253;60333;-67
2023/09/15 08:15:16;;;;;;;19.90;15.30;;;;;;;26.24;59.56;100293.88;108036;1252;73001;-67
2023/09/15 08:17:44;;;;;;;22.20;16.40;;;;;;;26.25;59.02;100307.88;108094;1253;68937;-66
2023/09/15 08:20:11;;;;;;;24.60;17.40;;;;;;;26.27;58.65;100306.90;108091;1253;71561;-67
2023/09/15 08:22:39;;;;;;;23.50;16.90;;;;;;;26.30;58.67;100306.65;108139;1252;63950;-66
2023/09/15 08:25:08;;;;;;;26.60;18.80;;;;;;;26.41;57.62;100311.42;108115;1253;60444;-67
2023/09/15 08:27:35;;;;;;;24.10;17.10;;;;;;;26.55;57.42;100313.48;108124;1253;73491;-66
2023/09/15 08:30:03;;;;;;;24.30;17.60;;;;;;;26.57;57.34;100314.31;108070;1253;70394;-66
2023/09/15 08:32:34;;;;;;;24.40;18.00;;;;;;;26.57;57.04;100320.63;108056;1253;73746;-66
2023/09/15 08:35:03;;;;;;;29.20;17.40;;;;;;;26.53;57.04;100317.45;108156;1253;61716;-67
2023/09/15 08:37:31;;;;;;;23.80;19.10;;;;;;;26.52;56.91;100323.27;108114;1253;60778;-67
2023/09/15 08:39:59;;;;;;;24.10;18.60;;;;;;;26.54;56.77;100322.98;108111;1253;74009;-66
2023/09/15 08:42:27;;;;;;;29.50;20.50;;;;;;;26.56;56.97;100327.80;108107;1252;70210;-67
2023/09/15 08:44:56;;;;;;;28.50;20.90;;;;;;;26.56;57.03;100331.36;108010;1253;71795;-66
2023/09/15 08:47:25;;;;;;;21.10;16.90;;;;;;;26.50;56.23;100335.52;108089;1253;61853;-66
2023/09/15 08:49:52;;;;;;;27.40;18.10;;;;;;;26.57;55.52;100336.48;108051;1253;60298;-67
2023/09/15 08:52:20;;;;;;;27.30;18.50;;;;;;;26.62;54.78;100337.31;108043;1253;72689;-67
2023/09/15 08:54:48;;;;;;;35.00;19.80;;;;;;;26.51;54.44;100341.04;108085;1253;70489;-65
2023/09/15 08:57:15;;;;;;;28.90;19.90;;;;;;;26.41;54.59;100344.27;108121;1253;71812;-65
2023/09/15 08:59:43;;;;;;;28.40;18.90;;;;;;;26.39;54.60;100351.79;108137;1253;61668;-67
2023/09/15 09:02:12;;;;;;;31.90;20.00;;;;;;;26.42;54.42;100351.38;108135;1253;60269;-66
2023/09/15 09:04:39;;;;;;;26.70;18.40;;;;;;;26.34;54.60;100347.65;108101;1253;73441;-66
2023/09/15 09:07:07;;;;;;;24.70;17.40;;;;;;;26.40;54.08;100349.15;108148;1253;70275;-67
2023/09/15 09:09:35;;;;;;;27.20;17.20;;;;;;;26.99;53.89;100342.46;108167;1253;73028;-67
2023/09/15 09:12:03;;;;;;;25.70;16.60;;;;;;;27.79;52.73;100346.92;108101;1253;62709;-67
2023/09/15 09:14:31;;;;;;;25.60;15.00;;;;;;;28.82;49.88;100341.24;108047;1258;61106;-66
2023/09/15 09:16:58;;;;;;;24.10;15.10;;;;;;;29.29;47.98;100335.73;108076;1257;73957;-66
2023/09/15 09:19:46;;;;;;;20.40;13.90;;;;;;;29.43;46.48;100338.95;108068;1253;71638;-66
2023/09/15 09:22:17;;;;;;;19.50;14.70;;;;;;;29.47;45.13;100340.47;108176;1253;71423;-67
2023/09/15 09:24:52;;;;;;;22.30;14.70;;;;;;;29.48;45.08;100338.20;108141;1253;63946;-67
2023/09/15 09:27:19;;;;;;;21.90;13.60;;;;;;;29.52;45.58;100340.19;108124;1253;60337;-67
2023/09/15 09:29:47;;;;;;;23.50;15.10;;;;;;;29.62;45.66;100342.88;108154;1253;72762;-68
2023/09/15 09:32:14;;;;;;;19.40;13.90;;;;;;;29.78;45.47;100341.91;108130;1253;69369;-67
2023/09/15 09:34:42;;;;;;;21.90;14.00;;;;;;;29.91;44.87;100342.93;108133;1253;73599;-68
2023/09/15 09:37:14;;;;;;;18.50;14.10;;;;;;;30.11;44.59;100341.40;108111;1257;63872;-67
2023/09/15 09:39:42;;;;;;;20.10;14.40;;;;;;;30.22;44.36;100344.56;108142;1253;61139;-67
2023/09/15 09:42:10;;;;;;;20.10;14.20;;;;;;;30.39;44.55;100342.05;108041;1258;74150;-67
2023/09/15 09:44:38;;;;;;;19.20;12.70;;;;;;;30.75;43.19;100338.88;108202;1253;68727;-67
2023/09/15 09:47:09;;;;;;;18.80;13.30;;;;;;;31.00;42.92;100338.68;108061;1253;71663;-67
2023/09/15 09:49:37;;;;;;;17.00;12.80;;;;;;;31.16;42.53;100335.16;108102;1253;60463;-67
2023/09/15 09:52:05;;;;;;;21.80;13.40;;;;;;;31.01;42.07;100336.54;108112;1253;60350;-68
2023/09/15 09:54:34;;;;;;;18.10;13.70;;;;;;;31.18;42.34;100337.45;108031;1253;72745;-67
2023/09/15 09:57:02;;;;;;;21.50;13.50;;;;;;;31.44;41.74;100335.81;108165;1253;70475;-67
2023/09/15 09:59:30;;;;;;;21.20;13.30;;;;;;;31.88;41.20;100334.97;108143;1253;71413;-67
2023/09/15 10:01:58;;;;;;;19.70;13.80;;;;;;;32.21;40.79;100333.48;108065;1256;60432;-67
2023/09/15 10:04:25;;;;;;;19.60;12.80;;;;;;;32.36;40.11;100334.30;108150;1253;60071;-67
2023/09/15 10:06:53;;;;;;;19.80;11.70;;;;;;;32.43;39.26;100338.00;108133;1253;74010;-67
2023/09/15 10:09:20;;;;;;;19.80;12.70;;;;;;;32.39;38.59;100338.96;108078;1252;61352;-67
2023/09/15 10:11:48;;;;;;;19.40;11.90;;;;;;;32.07;38.94;100348.25;108112;1253;71289;-67
2023/09/15 10:14:16;;;;;;;20.60;13.30;;;;;;;31.89;39.48;100352.66;108114;1257;62275;-66
2023/09/15 10:16:43;;;;;;;18.10;12.10;;;;;;;31.65;39.99;100350.89;108011;1253;60280;-72
2023/09/15 10:19:11;;;;;;;16.40;12.30;;;;;;;31.55;40.52;100353.64;108126;1252;74243;-69
2023/09/15 10:21:39;;;;;;;18.10;12.60;;;;;;;31.57;40.28;100352.80;108094;1255;70415;-68
2023/09/15 10:24:08;;;;;;;18.60;12.70;;;;;;;31.48;40.18;100355.85;108083;1253;71870;-67
2023/09/15 10:26:39;;;;;;;17.10;11.80;;;;;;;31.37;39.60;100349.77;108045;1253;60650;-67
2023/09/15 10:29:07;;;;;;;16.70;12.40;;;;;;;30.99;39.90;100355.15;108114;1257;61439;-66
2023/09/15 10:31:40;;;;;;;17.20;12.90;;;;;;;30.59;40.00;100362.40;108093;1252;73080;-67
2023/09/15 10:34:07;;;;;;;20.40;13.70;;;;;;;30.30;40.93;100362.52;108130;1253;69229;-68
2023/09/15 10:36:35;;;;;;;18.40;13.10;;;;;;;30.13;41.13;100367.77;108103;1253;72723;-66
2023/09/15 10:39:15;;;;;;;25.40;13.70;;;;;;;30.00;41.37;100370.01;108064;1253;60432;-67
2023/09/15 10:41:43;;;;;;;22.50;13.60;;;;;;;29.74;41.55;100370.15;108059;1253;60298;-67
2023/09/15 10:44:11;;;;;;;22.00;14.20;;;;;;;29.68;41.87;100373.29;108102;1253;74300;-67
2023/09/15 10:46:40;;;;;;;19.40;13.50;;;;;;;29.40;42.60;100373.68;108075;1253;70462;-67
2023/09/15 10:49:15;;;;;;;23.00;14.50;;;;;;;29.50;42.37;100371.49;108167;1253;71120;-67
2023/09/15 10:51:59;;;;;;;21.20;14.30;;;;;;;29.52;42.53;100371.59;108139;1257;59304;-68
2023/09/15 10:54:30;;;;;;;20.20;13.90;;;;;;;29.79;42.53;100374.75;108104;1253;62712;-68
2023/09/15 10:56:58;;;;;;;20.30;13.70;;;;;;;29.90;42.01;100381.29;108074;1253;74058;-68
2023/09/15 10:59:26;;;;;;;18.70;14.70;;;;;;;29.92;41.81;100377.98;107999;1253;72343;-67
2023/09/15 11:01:53;;;;;;;23.30;13.70;;;;;;;30.02;41.66;100379.56;107942;1253;74779;-67
2023/09/15 11:04:21;;;;;;;18.60;13.00;;;;;;;30.07;41.91;100377.09;108012;1253;60480;-68
2023/09/15 11:06:50;;;;;;;22.10;13.80;;;;;;;30.33;41.42;100380.45;108035;1253;60154;-67
2023/09/15 11:09:18;;;;;;;23.20;14.50;;;;;;;30.52;40.83;100381.20;107965;1260;73022;-69